Time;durP1;ratioP1;P1;durP2;ratioP2;P2;SDS_P1;SDS_P2;PMS_P1;PMS_P2;Temp;Humidity;BMP_temperature;BMP_pressure;BME280_temperature;BME280_humidity;BME280_pressure;Samples;Min_cycle;Max_cycle;Signal;HPM_P1;HPM_P2
2022/01/17 00:02:54;;;;;;;1.70;0.97;;;;;;;;;;6314838;28;20217;-76
2022/01/17 00:05:58;;;;;;;0.97;0.83;;;;;;;;;;6313696;28;20288;-76
2022/01/17 00:09:03;;;;;;;0.80;0.80;;;;;;;;;;6314123;28;20197;-76
2022/01/17 00:12:11;;;;;;;0.80;0.80;;;;;;;;;;6314309;28;20192;-76
2022/01/17 00:15:21;;;;;;;0.80;0.80;;;;;;;;;;6313254;28;20236;-76
2022/01/17 00:19:02;;;;;;;0.80;0.80;;;;;;;;;;6314449;28;20207;-76
2022/01/17 00:21:57;;;;;;;0.73;0.73;;;;;;;;;;6289141;28;20239;-76
2022/01/17 00:25:01;;;;;;;0.77;0.77;;;;;;;;;;6288161;28;20233;-76
2022/01/17 00:28:07;;;;;;;0.97;0.97;;;;;;;;;;6288009;28;20194;-76
2022/01/17 00:31:12;;;;;;;0.70;0.70;;;;;;;;;;6288414;28;20254;-76
2022/01/17 00:34:16;;;;;;;1.60;0.90;;;;;;;;;;6262666;28;20548;-76
2022/01/17 00:37:21;;;;;;;0.90;0.90;;;;;;;;;;6263268;28;20250;-76
2022/01/17 00:40:26;;;;;;;0.80;0.80;;;;;;;;;;6276524;28;20238;-76
2022/01/17 00:43:32;;;;;;;0.90;0.90;;;;;;;;;;6287767;28;20223;-76
2022/01/17 00:46:36;;;;;;;0.77;0.77;;;;;;;;;;6287440;28;20426;-76
2022/01/17 00:49:41;;;;;;;3.00;0.70;;;;;;;;;;6287568;28;20239;-76
2022/01/17 00:52:45;;;;;;;0.80;0.80;;;;;;;;;;6288498;28;20187;-76
2022/01/17 00:55:50;;;;;;;0.77;0.77;;;;;;;;;;6287633;28;20232;-76
2022/01/17 00:58:55;;;;;;;0.80;0.80;;;;;;;;;;6286747;28;20186;-77
2022/01/17 01:01:59;;;;;;;0.70;0.70;;;;;;;;;;6288088;28;20192;-76
2022/01/17 01:05:06;;;;;;;0.90;0.90;;;;;;;;;;6286861;28;20603;-76
2022/01/17 01:08:13;;;;;;;0.70;0.70;;;;;;;;;;6288479;28;20185;-76
2022/01/17 01:11:17;;;;;;;5.10;0.90;;;;;;;;;;6286974;28;20249;-76
2022/01/17 01:14:22;;;;;;;0.80;0.80;;;;;;;;;;6269716;28;20232;-76
2022/01/17 01:17:35;;;;;;;1.17;0.80;;;;;;;;;;6288219;28;20189;-76
2022/01/17 01:21:02;;;;;;;0.93;0.93;;;;;;;;;;6287174;28;20227;-76
2022/01/17 01:27:52;;;;;;;0.90;0.90;;;;;;;;;;6286998;28;20219;-76
2022/01/17 01:31:00;;;;;;;5.43;0.90;;;;;;;;;;6286530;28;20289;-76
2022/01/17 01:34:06;;;;;;;1.50;1.10;;;;;;;;;;6286147;28;20256;-76
2022/01/17 01:37:11;;;;;;;0.80;0.80;;;;;;;;;;6287707;28;20245;-76
2022/01/17 01:40:18;;;;;;;1.27;0.77;;;;;;;;;;6285958;28;20260;-76
2022/01/17 01:43:22;;;;;;;0.80;0.80;;;;;;;;;;6287608;28;20219;-76
2022/01/17 01:46:28;;;;;;;0.87;0.87;;;;;;;;;;6286167;28;20231;-76
2022/01/17 01:49:33;;;;;;;0.90;0.90;;;;;;;;;;6285807;28;20413;-76
2022/01/17 01:52:37;;;;;;;4.20;0.90;;;;;;;;;;6287542;28;20225;-76
2022/01/17 01:55:41;;;;;;;1.00;1.00;;;;;;;;;;6286591;28;20318;-76
2022/01/17 01:58:45;;;;;;;1.00;1.00;;;;;;;;;;6287516;28;20184;-76
2022/01/17 02:01:52;;;;;;;2.80;0.80;;;;;;;;;;6285413;28;20420;-76
2022/01/17 02:04:56;;;;;;;0.90;0.90;;;;;;;;;;6285616;28;20507;-76
2022/01/17 02:08:00;;;;;;;0.93;0.93;;;;;;;;;;6286174;28;20262;-77
2022/01/17 02:11:07;;;;;;;0.97;0.97;;;;;;;;;;6285983;28;20421;-77
2022/01/17 02:14:11;;;;;;;1.13;1.13;;;;;;;;;;6286186;28;20254;-77
2022/01/17 02:17:19;;;;;;;1.03;1.03;;;;;;;;;;6285849;28;20479;-77
2022/01/17 02:20:29;;;;;;;1.50;1.40;;;;;;;;;;6285712;28;20259;-77
2022/01/17 02:23:33;;;;;;;0.90;0.90;;;;;;;;;;6286912;28;20249;-77
2022/01/17 02:26:38;;;;;;;1.13;1.13;;;;;;;;;;6285621;28;20242;-77
2022/01/17 02:29:43;;;;;;;1.30;1.17;;;;;;;;;;6286236;28;20226;-77
2022/01/17 02:32:47;;;;;;;1.23;1.23;;;;;;;;;;6299590;28;20497;-77
2022/01/17 02:35:53;;;;;;;1.23;1.20;;;;;;;;;;6310636;28;20262;-77
2022/01/17 02:38:57;;;;;;;7.30;0.83;;;;;;;;;;6311347;28;20224;-77
2022/01/17 02:42:02;;;;;;;4.07;1.17;;;;;;;;;;6311378;28;20230;-77
2022/01/17 02:45:20;;;;;;;6.17;1.20;;;;;;;;;;6310354;28;20309;-77
2022/01/17 02:48:27;;;;;;;1.53;1.00;;;;;;;;;;6311451;28;20186;-77
2022/01/17 02:51:33;;;;;;;1.10;1.10;;;;;;;;;;6310496;28;20238;-77
2022/01/17 02:54:38;;;;;;;1.20;1.20;;;;;;;;;;6309791;28;20411;-76
2022/01/17 02:57:42;;;;;;;2.07;1.20;;;;;;;;;;6311336;28;20186;-77
2022/01/17 03:00:47;;;;;;;3.70;1.17;;;;;;;;;;6310981;28;20257;-77
2022/01/17 03:03:52;;;;;;;1.63;0.97;;;;;;;;;;6309717;28;20230;-78
2022/01/17 03:06:57;;;;;;;3.13;1.10;;;;;;;;;;6310551;28;20192;-77
2022/01/17 03:10:03;;;;;;;0.87;0.87;;;;;;;;;;6310279;28;20293;-77
2022/01/17 03:13:10;;;;;;;3.83;1.30;;;;;;;;;;6312594;28;20185;-76
2022/01/17 03:16:15;;;;;;;1.00;1.00;;;;;;;;;;6296591;28;20257;-77
2022/01/17 03:19:20;;;;;;;3.80;1.10;;;;;;;;;;6314109;28;20453;-76
2022/01/17 03:22:29;;;;;;;2.90;1.30;;;;;;;;;;6314998;28;20274;-76
2022/01/17 03:25:33;;;;;;;0.77;0.77;;;;;;;;;;6314056;28;20400;-76
2022/01/17 03:28:38;;;;;;;0.90;0.90;;;;;;;;;;6315430;28;20187;-76
2022/01/17 03:31:42;;;;;;;0.90;0.90;;;;;;;;;;6310201;28;20355;-76
2022/01/17 03:34:46;;;;;;;1.00;1.00;;;;;;;;;;6281201;28;20269;-77
2022/01/17 03:37:51;;;;;;;0.93;0.93;;;;;;;;;;6265804;28;20220;-77
2022/01/17 03:40:57;;;;;;;2.30;1.00;;;;;;;;;;6282533;28;20238;-76
2022/01/17 03:44:01;;;;;;;2.47;1.03;;;;;;;;;;6287553;28;20188;-77
2022/01/17 03:47:07;;;;;;;0.83;0.83;;;;;;;;;;6265572;28;20207;-76
2022/01/17 03:50:14;;;;;;;0.93;0.93;;;;;;;;;;6270026;28;20229;-77
2022/01/17 03:53:19;;;;;;;2.23;1.33;;;;;;;;;;6290222;28;20254;-76
2022/01/17 03:56:24;;;;;;;2.63;1.13;;;;;;;;;;6288329;28;20589;-76
2022/01/17 03:59:29;;;;;;;1.60;0.90;;;;;;;;;;6288523;28;20221;-77
2022/01/17 04:02:33;;;;;;;1.20;1.20;;;;;;;;;;6289912;28;20214;-77
2022/01/17 04:05:37;;;;;;;1.10;1.10;;;;;;;;;;6288700;28;20229;-77
2022/01/17 04:08:43;;;;;;;3.97;1.00;;;;;;;;;;6271020;28;20265;-76
2022/01/17 04:11:47;;;;;;;1.17;1.17;;;;;;;;;;6264703;28;20214;-77
2022/01/17 04:14:55;;;;;;;0.80;0.80;;;;;;;;;;6266699;28;20241;-76
2022/01/17 04:17:59;;;;;;;1.10;1.10;;;;;;;;;;6288394;28;20458;-76
2022/01/17 04:21:03;;;;;;;1.00;1.00;;;;;;;;;;6287986;28;20458;-76
2022/01/17 04:24:10;;;;;;;5.07;1.03;;;;;;;;;;6286883;28;20401;-77
2022/01/17 04:27:14;;;;;;;0.90;0.90;;;;;;;;;;6288104;28;20222;-77
2022/01/17 04:30:18;;;;;;;0.87;0.87;;;;;;;;;;6288442;28;20542;-76
2022/01/17 04:33:23;;;;;;;0.90;0.90;;;;;;;;;;6288554;28;20209;-76
2022/01/17 04:36:28;;;;;;;1.00;1.00;;;;;;;;;;6288136;28;20240;-77
2022/01/17 04:39:33;;;;;;;1.00;1.00;;;;;;;;;;6287360;28;20441;-77
2022/01/17 04:42:44;;;;;;;1.30;1.20;;;;;;;;;;6288907;28;20222;-76
2022/01/17 04:45:49;;;;;;;1.00;0.90;;;;;;;;;;6287363;28;20279;-77
2022/01/17 04:48:53;;;;;;;1.40;1.20;;;;;;;;;;6287963;28;20192;-77
2022/01/17 04:51:57;;;;;;;1.00;1.00;;;;;;;;;;6288871;28;20189;-76
2022/01/17 04:55:03;;;;;;;0.97;0.97;;;;;;;;;;6286980;28;20227;-77
2022/01/17 04:58:13;;;;;;;2.03;1.10;;;;;;;;;;6287763;28;20196;-77
2022/01/17 05:01:17;;;;;;;0.97;0.97;;;;;;;;;;6287540;28;20238;-77
2022/01/17 05:04:21;;;;;;;4.07;1.10;;;;;;;;;;6287468;28;20224;-78
2022/01/17 05:07:25;;;;;;;1.20;1.20;;;;;;;;;;6288069;28;20187;-78
2022/01/17 05:10:31;;;;;;;1.30;1.20;;;;;;;;;;6287483;28;20238;-77
2022/01/17 05:13:37;;;;;;;3.07;1.10;;;;;;;;;;6287990;28;20195;-77
2022/01/17 05:16:46;;;;;;;1.10;1.10;;;;;;;;;;6287440;28;20256;-76
2022/01/17 05:19:53;;;;;;;6.20;1.23;;;;;;;;;;6269566;28;20233;-77
2022/01/17 05:22:57;;;;;;;5.00;0.83;;;;;;;;;;6288035;28;20242;-77
2022/01/17 05:26:02;;;;;;;1.60;1.50;;;;;;;;;;6268037;28;20253;-76
2022/01/17 05:29:08;;;;;;;1.10;1.10;;;;;;;;;;6261556;28;20232;-77
2022/01/17 05:32:13;;;;;;;0.90;0.90;;;;;;;;;;6284029;28;20205;-76
2022/01/17 05:35:18;;;;;;;5.20;1.00;;;;;;;;;;6287128;28;20249;-76
2022/01/17 05:38:21;;;;;;;1.40;1.00;;;;;;;;;;6287897;28;20257;-76
2022/01/17 05:41:27;;;;;;;1.93;1.20;;;;;;;;;;6286295;28;20238;-76
2022/01/17 05:44:31;;;;;;;2.60;1.27;;;;;;;;;;6278339;28;20234;-76
2022/01/17 05:47:35;;;;;;;1.40;1.30;;;;;;;;;;6286560;28;20272;-76
2022/01/17 05:50:40;;;;;;;5.50;1.20;;;;;;;;;;6286492;28;20293;-77
2022/01/17 05:53:44;;;;;;;1.90;0.80;;;;;;;;;;6286339;28;20481;-77
2022/01/17 05:56:49;;;;;;;2.37;1.30;;;;;;;;;;6262703;28;20356;-76
2022/01/17 05:59:54;;;;;;;1.70;1.07;;;;;;;;;;6265171;28;20250;-76
2022/01/17 06:02:59;;;;;;;1.10;1.10;;;;;;;;;;6286920;28;20211;-76
2022/01/17 06:06:05;;;;;;;1.37;1.10;;;;;;;;;;6285773;28;20244;-77
2022/01/17 06:09:09;;;;;;;2.97;1.30;;;;;;;;;;6285465;28;20530;-77
2022/01/17 06:12:15;;;;;;;2.83;1.20;;;;;;;;;;6285996;28;20335;-76
2022/01/17 06:15:20;;;;;;;1.00;1.00;;;;;;;;;;6286183;28;20242;-76
2022/01/17 06:18:24;;;;;;;2.03;1.17;;;;;;;;;;6286086;28;20469;-76
2022/01/17 06:21:28;;;;;;;3.60;1.30;;;;;;;;;;6286084;28;20342;-76
2022/01/17 06:24:33;;;;;;;3.30;1.10;;;;;;;;;;6285172;28;20238;-76
2022/01/17 06:27:38;;;;;;;1.47;1.07;;;;;;;;;;6285658;28;20525;-76
2022/01/17 06:30:46;;;;;;;0.90;0.90;;;;;;;;;;6285686;28;20230;-76
2022/01/17 06:33:50;;;;;;;2.63;1.03;;;;;;;;;;6285567;28;20191;-76
2022/01/17 06:36:54;;;;;;;6.57;1.07;;;;;;;;;;6286060;28;20237;-75
2022/01/17 06:39:59;;;;;;;9.33;1.20;;;;;;;;;;6285937;28;20234;-76
2022/01/17 06:43:06;;;;;;;0.90;0.90;;;;;;;;;;6285605;28;20415;-75
2022/01/17 06:46:10;;;;;;;4.37;1.03;;;;;;;;;;6285982;28;20237;-76
2022/01/17 06:49:14;;;;;;;0.90;0.90;;;;;;;;;;6290323;28;20290;-76
2022/01/17 06:52:19;;;;;;;7.47;1.00;;;;;;;;;;6291571;28;20187;-77
2022/01/17 06:55:24;;;;;;;0.97;0.97;;;;;;;;;;6290535;28;20236;-78
2022/01/17 06:58:29;;;;;;;1.03;1.03;;;;;;;;;;6291536;28;20193;-75
2022/01/17 07:01:38;;;;;;;8.13;1.00;;;;;;;;;;6290147;28;20229;-78
2022/01/17 07:04:42;;;;;;;1.33;1.23;;;;;;;;;;6291042;28;20234;-78
2022/01/17 07:07:46;;;;;;;1.00;0.90;;;;;;;;;;6292437;28;20193;-78
2022/01/17 07:10:50;;;;;;;1.27;1.27;;;;;;;;;;6291443;28;20260;-79
2022/01/17 07:13:56;;;;;;;1.33;0.90;;;;;;;;;;6290313;28;20198;-78
2022/01/17 07:17:00;;;;;;;3.47;1.20;;;;;;;;;;6291459;28;20195;-75
2022/01/17 07:20:06;;;;;;;1.33;1.00;;;;;;;;;;6290071;28;20252;-75
2022/01/17 07:23:13;;;;;;;4.40;0.87;;;;;;;;;;6289642;28;20524;-76
2022/01/17 07:26:17;;;;;;;1.30;0.87;;;;;;;;;;6275341;28;20230;-78
2022/01/17 07:29:24;;;;;;;4.27;1.00;;;;;;;;;;6290425;28;20233;-79
2022/01/17 07:32:28;;;;;;;1.17;1.00;;;;;;;;;;6303574;28;20252;-78
2022/01/17 07:35:32;;;;;;;5.97;1.30;;;;;;;;;;6314445;28;20270;-78
2022/01/17 07:38:37;;;;;;;0.87;0.87;;;;;;;;;;6316076;28;20230;-78
2022/01/17 07:41:41;;;;;;;2.03;1.10;;;;;;;;;;6315051;28;20245;-78
2022/01/17 07:44:55;;;;;;;6.10;1.10;;;;;;;;;;6296291;28;20314;-78
2022/01/17 07:48:22;;;;;;;2.83;1.10;;;;;;;;;;6315691;28;20186;-77
2022/01/17 07:51:27;;;;;;;1.87;1.00;;;;;;;;;;6314370;28;20237;-78
2022/01/17 07:54:33;;;;;;;0.97;0.97;;;;;;;;;;6314981;28;20240;-77
2022/01/17 07:57:37;;;;;;;1.00;1.00;;;;;;;;;;6315043;28;20192;-77
2022/01/17 08:00:43;;;;;;;3.13;1.20;;;;;;;;;;6313519;28;20263;-77
2022/01/17 08:03:47;;;;;;;2.90;1.03;;;;;;;;;;6315236;28;20209;-77
2022/01/17 08:06:51;;;;;;;0.90;0.90;;;;;;;;;;6289026;28;20241;-77
2022/01/17 08:09:56;;;;;;;1.13;1.10;;;;;;;;;;6289567;28;20302;-77
2022/01/17 08:13:00;;;;;;;1.70;1.10;;;;;;;;;;6288954;28;20282;-77
2022/01/17 08:16:06;;;;;;;0.90;0.90;;;;;;;;;;6288902;28;20271;-77
2022/01/17 08:19:13;;;;;;;2.20;0.80;;;;;;;;;;6288948;28;20236;-78
2022/01/17 08:22:17;;;;;;;3.80;1.00;;;;;;;;;;6289766;28;20196;-77
2022/01/17 08:25:20;;;;;;;4.33;1.13;;;;;;;;;;6288388;28;20245;-77
2022/01/17 08:28:25;;;;;;;1.00;1.00;;;;;;;;;;6288570;28;20475;-77
2022/01/17 08:31:30;;;;;;;10.80;1.30;;;;;;;;;;6286530;28;20248;-78
2022/01/17 08:34:34;;;;;;;6.23;1.23;;;;;;;;;;6278982;28;20450;-78
2022/01/17 08:37:38;;;;;;;1.90;1.03;;;;;;;;;;6313342;28;20436;-78
2022/01/17 08:40:49;;;;;;;0.93;0.93;;;;;;;;;;6313586;28;20229;-77
2022/01/17 08:43:53;;;;;;;5.70;1.20;;;;;;;;;;6313215;28;20210;-78
2022/01/17 08:46:59;;;;;;;1.00;1.00;;;;;;;;;;6313052;28;20193;-78
2022/01/17 08:50:04;;;;;;;1.90;1.23;;;;;;;;;;6313143;28;20231;-77
2022/01/17 08:53:13;;;;;;;0.70;0.70;;;;;;;;;;6312775;28;20415;-76
2022/01/17 08:56:17;;;;;;;1.80;0.87;;;;;;;;;;6313099;28;20234;-77
2022/01/17 08:59:21;;;;;;;0.80;0.80;;;;;;;;;;6312467;28;20461;-78
2022/01/17 09:02:27;;;;;;;1.07;1.07;;;;;;;;;;6312823;28;20194;-78
2022/01/17 09:05:33;;;;;;;0.83;0.83;;;;;;;;;;6313463;28;20233;-78
2022/01/17 09:08:37;;;;;;;0.97;0.90;;;;;;;;;;6312995;28;20193;-78
2022/01/17 09:11:42;;;;;;;5.07;0.93;;;;;;;;;;6312233;28;20295;-78
2022/01/17 09:14:46;;;;;;;2.27;1.07;;;;;;;;;;6313224;28;20235;-78
2022/01/17 09:17:52;;;;;;;1.43;1.23;;;;;;;;;;6313759;28;20190;-78
2022/01/17 09:20:56;;;;;;;1.17;0.90;;;;;;;;;;6312711;28;20245;-78
2022/01/17 09:24:01;;;;;;;2.97;1.00;;;;;;;;;;6312690;28;20221;-78
2022/01/17 09:27:07;;;;;;;1.00;1.00;;;;;;;;;;6313587;28;20264;-78
2022/01/17 09:30:14;;;;;;;3.97;1.07;;;;;;;;;;6312791;28;20255;-78
2022/01/17 09:33:19;;;;;;;3.90;1.17;;;;;;;;;;6294495;28;20198;-78
2022/01/17 09:36:25;;;;;;;6.03;1.00;;;;;;;;;;6265820;28;20318;-77
2022/01/17 09:39:29;;;;;;;5.27;1.10;;;;;;;;;;6268450;28;20227;-78
2022/01/17 09:42:36;;;;;;;1.90;1.27;;;;;;;;;;6288472;28;20259;-78
2022/01/17 09:45:40;;;;;;;2.10;0.80;;;;;;;;;;6287264;28;20465;-77
2022/01/17 09:48:49;;;;;;;2.43;1.10;;;;;;;;;;6286885;28;20210;-78
2022/01/17 09:52:26;;;;;;;3.47;1.43;;;;;;;;;;6287779;28;20203;-78
2022/01/17 09:55:32;;;;;;;0.90;0.90;;;;;;;;;;6287387;28;20244;-78
2022/01/17 09:58:36;;;;;;;0.90;0.90;;;;;;;;;;6287817;28;20309;-78
2022/01/17 10:01:41;;;;;;;1.67;0.97;;;;;;;;;;6286623;28;20508;-78
2022/01/17 10:04:47;;;;;;;0.90;0.90;;;;;;;;;;6286772;28;20254;-78
2022/01/17 10:07:57;;;;;;;1.00;1.00;;;;;;;;;;6288048;28;20258;-78
2022/01/17 10:11:02;;;;;;;0.93;0.93;;;;;;;;;;6286865;28;20231;-78
2022/01/17 10:14:23;;;;;;;6.80;1.10;;;;;;;;;;6287468;28;20196;-78
2022/01/17 10:17:43;;;;;;;1.03;0.93;;;;;;;;;;6288067;28;20197;-78
2022/01/17 10:20:54;;;;;;;2.63;1.03;;;;;;;;;;6286459;28;20477;-78
2022/01/17 10:24:13;;;;;;;1.80;1.10;;;;;;;;;;6290279;28;20386;-78
2022/01/17 10:31:01;;;;;;;1.03;1.03;;;;;;;;;;6291872;28;20228;-78
2022/01/17 10:37:29;;;;;;;1.10;1.10;;;;;;;;;;6267773;28;20188;-78
2022/01/17 10:40:36;;;;;;;1.03;1.03;;;;;;;;;;6266286;28;20241;-78
2022/01/17 10:43:43;;;;;;;6.13;1.10;;;;;;;;;;6266911;28;20187;-78
2022/01/17 10:46:47;;;;;;;1.73;1.60;;;;;;;;;;6266173;28;20243;-78
2022/01/17 10:50:11;;;;;;;1.43;0.97;;;;;;;;;;6266544;28;20230;-78
2022/01/17 10:53:17;;;;;;;2.60;1.10;;;;;;;;;;6267448;28;20283;-78
2022/01/17 10:56:24;;;;;;;1.47;1.10;;;;;;;;;;6265920;28;20234;-78
2022/01/17 10:59:31;;;;;;;0.93;0.93;;;;;;;;;;6265843;28;20419;-77
2022/01/17 11:02:36;;;;;;;1.13;1.13;;;;;;;;;;6266657;28;20194;-78
2022/01/17 11:05:41;;;;;;;1.10;1.10;;;;;;;;;;6265280;28;20232;-78
2022/01/17 11:08:49;;;;;;;0.90;0.90;;;;;;;;;;6265211;28;20381;-79
2022/01/17 11:11:53;;;;;;;1.70;1.23;;;;;;;;;;6267117;28;20191;-77
2022/01/17 11:14:58;;;;;;;8.00;1.07;;;;;;;;;;6265281;28;20533;-77
2022/01/17 11:18:10;;;;;;;1.83;0.97;;;;;;;;;;6265319;28;20188;-78
2022/01/17 11:21:17;;;;;;;4.20;1.30;;;;;;;;;;6265559;28;20237;-78
2022/01/17 11:24:23;;;;;;;5.33;1.30;;;;;;;;;;6265619;28;20235;-78
2022/01/17 11:27:27;;;;;;;3.70;0.80;;;;;;;;;;6266188;28;20211;-77
2022/01/17 11:30:34;;;;;;;2.43;1.27;;;;;;;;;;6265477;28;20231;-78
2022/01/17 11:33:38;;;;;;;1.17;1.17;;;;;;;;;;6286423;28;20210;-77
2022/01/17 11:36:43;;;;;;;3.20;1.30;;;;;;;;;;6310082;28;20291;-78
2022/01/17 11:39:51;;;;;;;1.00;1.00;;;;;;;;;;6315044;28;20226;-77
2022/01/17 11:42:59;;;;;;;1.30;1.17;;;;;;;;;;6297496;28;20269;-77
2022/01/17 11:46:22;;;;;;;1.03;1.03;;;;;;;;;;6314555;28;20234;-77
2022/01/17 11:49:31;;;;;;;1.00;0.87;;;;;;;;;;6315061;28;20353;-77
2022/01/17 11:52:35;;;;;;;4.63;0.97;;;;;;;;;;6314469;28;20244;-77
2022/01/17 11:55:46;;;;;;;4.07;1.00;;;;;;;;;;6313714;28;20233;-76
2022/01/17 11:58:52;;;;;;;0.80;0.80;;;;;;;;;;6314419;28;20250;-76
2022/01/17 12:02:23;;;;;;;2.10;1.10;;;;;;;;;;6313734;28;20187;-78
2022/01/17 12:05:33;;;;;;;2.00;0.93;;;;;;;;;;6314208;28;20253;-76
2022/01/17 12:08:38;;;;;;;0.97;0.97;;;;;;;;;;6314650;28;20187;-76
2022/01/17 12:11:43;;;;;;;1.30;1.30;;;;;;;;;;6313554;28;20282;-76
2022/01/17 12:15:04;;;;;;;1.00;1.00;;;;;;;;;;6314059;28;20227;-76
2022/01/17 12:18:28;;;;;;;0.80;0.80;;;;;;;;;;6313207;28;20217;-76
2022/01/17 12:21:36;;;;;;;0.83;0.83;;;;;;;;;;6313418;28;20284;-76
2022/01/17 12:24:42;;;;;;;3.30;1.30;;;;;;;;;;6312966;28;20250;-76
2022/01/17 12:27:48;;;;;;;1.43;0.90;;;;;;;;;;6313452;28;20220;-76
2022/01/17 12:30:56;;;;;;;6.77;1.10;;;;;;;;;;6312482;28;20390;-76
2022/01/17 12:34:17;;;;;;;1.80;1.10;;;;;;;;;;6312011;28;20423;-76
2022/01/17 12:37:32;;;;;;;1.27;1.13;;;;;;;;;;6313840;28;20232;-76
2022/01/17 12:40:40;;;;;;;1.20;1.20;;;;;;;;;;6313117;28;20238;-76
2022/01/17 12:43:45;;;;;;;2.37;1.10;;;;;;;;;;6313631;28;20192;-76
2022/01/17 12:46:52;;;;;;;1.90;1.23;;;;;;;;;;6312913;28;20226;-76
2022/01/17 12:49:56;;;;;;;2.43;1.20;;;;;;;;;;6312230;28;20230;-76
2022/01/17 12:53:02;;;;;;;1.33;1.10;;;;;;;;;;6312557;28;20186;-78
2022/01/17 12:56:08;;;;;;;6.00;1.27;;;;;;;;;;6313331;28;20233;-76
2022/01/17 12:59:16;;;;;;;1.13;0.90;;;;;;;;;;6313090;28;20237;-76
2022/01/17 13:02:20;;;;;;;0.80;0.80;;;;;;;;;;6313358;28;20184;-76
2022/01/17 13:05:26;;;;;;;1.57;1.10;;;;;;;;;;6312399;28;20278;-76
2022/01/17 13:08:31;;;;;;;3.30;1.00;;;;;;;;;;6313119;28;20285;-76
2022/01/17 13:11:39;;;;;;;4.07;1.23;;;;;;;;;;6312149;28;20259;-76
2022/01/17 13:14:44;;;;;;;12.63;1.10;;;;;;;;;;6312421;28;20248;-76
2022/01/17 13:17:51;;;;;;;1.27;1.20;;;;;;;;;;6312589;28;20194;-76
2022/01/17 13:20:55;;;;;;;1.70;1.10;;;;;;;;;;6311558;28;20230;-76
2022/01/17 13:24:11;;;;;;;0.87;0.87;;;;;;;;;;6310990;28;20479;-77
2022/01/17 13:27:16;;;;;;;0.90;0.90;;;;;;;;;;6312087;28;20245;-76
2022/01/17 13:30:22;;;;;;;3.77;0.87;;;;;;;;;;6311611;28;20226;-77
2022/01/17 13:33:46;;;;;;;1.63;1.53;;;;;;;;;;6311449;28;20482;-76
2022/01/17 13:36:52;;;;;;;1.13;1.03;;;;;;;;;;6312520;28;20405;-76
2022/01/17 13:40:14;;;;;;;0.90;0.90;;;;;;;;;;6311730;28;20231;-77
2022/01/17 13:43:28;;;;;;;1.00;1.00;;;;;;;;;;6312138;28;20295;-76
2022/01/17 13:46:37;;;;;;;1.90;0.90;;;;;;;;;;6311228;28;20236;-77
2022/01/17 13:49:44;;;;;;;0.97;0.90;;;;;;;;;;6311311;28;20224;-76
2022/01/17 13:52:48;;;;;;;2.10;1.23;;;;;;;;;;6312530;28;20192;-76
2022/01/17 13:55:55;;;;;;;1.93;1.03;;;;;;;;;;6311068;28;20235;-77
2022/01/17 13:58:59;;;;;;;2.23;0.90;;;;;;;;;;6312037;28;20257;-77
2022/01/17 14:02:15;;;;;;;1.00;1.00;;;;;;;;;;6311116;28;20322;-77
2022/01/17 14:05:30;;;;;;;2.27;0.80;;;;;;;;;;6310549;28;20393;-76
2022/01/17 14:08:40;;;;;;;0.90;0.90;;;;;;;;;;6312147;28;20209;-76
2022/01/17 14:11:45;;;;;;;3.10;0.87;;;;;;;;;;6310636;28;20280;-76
2022/01/17 14:14:52;;;;;;;1.60;0.90;;;;;;;;;;6311218;28;20280;-76
2022/01/17 14:18:05;;;;;;;3.20;1.20;;;;;;;;;;6311836;28;20257;-76
2022/01/17 14:21:28;;;;;;;5.00;1.00;;;;;;;;;;6311015;28;20229;-77
2022/01/17 14:24:36;;;;;;;1.57;1.10;;;;;;;;;;6310883;28;20293;-77
2022/01/17 14:27:41;;;;;;;5.07;1.30;;;;;;;;;;6311395;28;20214;-77
2022/01/17 14:30:47;;;;;;;9.73;1.17;;;;;;;;;;6310537;28;20406;-77
2022/01/17 14:33:55;;;;;;;5.30;1.13;;;;;;;;;;6310121;28;20565;-77
2022/01/17 14:37:04;;;;;;;4.93;1.10;;;;;;;;;;6311404;28;20299;-77
2022/01/17 14:40:28;;;;;;;4.53;1.30;;;;;;;;;;6310633;28;20419;-77
2022/01/17 14:43:34;;;;;;;18.03;1.40;;;;;;;;;;6293173;28;20579;-77
2022/01/17 14:46:45;;;;;;;4.43;1.23;;;;;;;;;;6310849;28;20240;-77
2022/01/17 14:49:52;;;;;;;1.17;1.17;;;;;;;;;;6310969;28;20524;-77
2022/01/17 14:52:57;;;;;;;1.00;0.90;;;;;;;;;;6313507;28;20184;-77
2022/01/17 14:59:42;;;;;;;0.83;0.83;;;;;;;;;;6206123;28;20448;-78
2022/01/17 15:02:53;;;;;;;4.73;1.10;;;;;;;;;;6187442;28;20191;-78
2022/01/17 15:05:58;;;;;;;0.97;0.97;;;;;;;;;;6282093;28;20300;-77
2022/01/17 15:09:03;;;;;;;1.60;1.10;;;;;;;;;;6289330;28;20217;-77
2022/01/17 15:12:08;;;;;;;7.10;1.13;;;;;;;;;;6290495;28;20185;-77
2022/01/17 15:15:13;;;;;;;0.90;0.90;;;;;;;;;;6290524;28;20566;-77
2022/01/17 15:18:20;;;;;;;1.03;1.03;;;;;;;;;;6291119;28;20257;-77
2022/01/17 15:21:26;;;;;;;2.13;1.20;;;;;;;;;;6289791;28;20228;-77
2022/01/17 15:24:30;;;;;;;4.70;1.10;;;;;;;;;;6290627;28;20263;-77
2022/01/17 15:27:35;;;;;;;3.10;0.90;;;;;;;;;;6291046;28;20279;-77
2022/01/17 15:30:39;;;;;;;0.80;0.80;;;;;;;;;;6289884;28;20233;-77
2022/01/17 15:33:47;;;;;;;1.10;1.10;;;;;;;;;;6289560;28;20444;-77
2022/01/17 15:36:53;;;;;;;1.10;1.10;;;;;;;;;;6271226;28;20240;-77
2022/01/17 15:39:57;;;;;;;1.67;1.07;;;;;;;;;;6284713;28;20233;-77
2022/01/17 15:43:01;;;;;;;6.43;0.90;;;;;;;;;;6315404;28;20258;-77
2022/01/17 15:46:06;;;;;;;11.40;1.53;;;;;;;;;;6314195;28;20237;-77
2022/01/17 15:49:14;;;;;;;0.80;0.80;;;;;;;;;;6313777;28;20518;-77
2022/01/17 15:52:19;;;;;;;1.13;1.13;;;;;;;;;;6315512;28;20187;-77
2022/01/17 15:55:25;;;;;;;0.90;0.90;;;;;;;;;;6314841;28;20235;-77
2022/01/17 15:58:29;;;;;;;1.07;1.07;;;;;;;;;;6315261;28;20253;-76
2022/01/17 16:01:34;;;;;;;2.73;0.90;;;;;;;;;;6313974;28;20242;-76
2022/01/17 16:04:38;;;;;;;3.00;1.13;;;;;;;;;;6313461;28;20226;-76
2022/01/17 16:07:43;;;;;;;1.10;1.10;;;;;;;;;;6314817;28;20247;-77
2022/01/17 16:10:50;;;;;;;1.10;1.10;;;;;;;;;;6312715;28;20227;-76
2022/01/17 16:13:55;;;;;;;1.43;1.33;;;;;;;;;;6312843;28;20183;-77
2022/01/17 16:16:59;;;;;;;1.80;1.20;;;;;;;;;;6313467;28;20183;-76
2022/01/17 16:20:04;;;;;;;1.83;1.07;;;;;;;;;;6312367;28;20299;-78
2022/01/17 16:23:10;;;;;;;1.13;1.13;;;;;;;;;;6314114;28;20185;-77
2022/01/17 16:26:15;;;;;;;3.50;1.50;;;;;;;;;;6313722;28;20295;-77
2022/01/17 16:29:19;;;;;;;8.70;1.27;;;;;;;;;;6313045;28;20491;-77
2022/01/17 16:32:23;;;;;;;2.00;1.40;;;;;;;;;;6314093;28;20200;-77
2022/01/17 16:35:28;;;;;;;1.40;1.20;;;;;;;;;;6313401;28;20313;-77
2022/01/17 16:38:34;;;;;;;1.90;1.40;;;;;;;;;;6312896;28;20187;-77
2022/01/17 16:41:38;;;;;;;1.27;1.17;;;;;;;;;;6313263;28;20226;-77
2022/01/17 16:44:52;;;;;;;2.23;1.30;;;;;;;;;;6313284;28;20232;-77
2022/01/17 16:47:55;;;;;;;1.00;1.00;;;;;;;;;;6313875;28;20231;-77
2022/01/17 16:51:01;;;;;;;4.07;1.30;;;;;;;;;;6312788;28;20232;-77
2022/01/17 16:54:08;;;;;;;1.10;1.10;;;;;;;;;;6312757;28;20184;-77
2022/01/17 16:57:12;;;;;;;1.20;1.20;;;;;;;;;;6313237;28;20183;-77
2022/01/17 17:00:17;;;;;;;5.70;1.07;;;;;;;;;;6312200;28;20545;-77
2022/01/17 17:03:21;;;;;;;4.90;1.70;;;;;;;;;;6312260;28;20188;-77
2022/01/17 17:06:25;;;;;;;1.43;1.40;;;;;;;;;;6312233;28;20233;-77
2022/01/17 17:09:50;;;;;;;1.33;1.20;;;;;;;;;;6312638;28;20234;-77
2022/01/17 17:12:55;;;;;;;3.60;1.03;;;;;;;;;;6312642;28;20230;-77
2022/01/17 17:16:01;;;;;;;3.80;1.20;;;;;;;;;;6312601;28;20291;-77
2022/01/17 17:19:06;;;;;;;1.30;1.20;;;;;;;;;;6312293;28;20195;-77
2022/01/17 17:22:15;;;;;;;2.10;1.20;;;;;;;;;;6312673;28;20265;-76
2022/01/17 17:25:21;;;;;;;2.80;1.13;;;;;;;;;;6311292;28;20538;-76
2022/01/17 17:28:25;;;;;;;1.40;1.40;;;;;;;;;;6313004;28;20184;-76
2022/01/17 17:31:29;;;;;;;1.37;1.33;;;;;;;;;;6308612;28;20250;-76
2022/01/17 17:34:33;;;;;;;1.10;1.10;;;;;;;;;;6287675;28;20225;-77
2022/01/17 17:37:38;;;;;;;1.00;1.00;;;;;;;;;;6287627;28;20311;-77
2022/01/17 17:40:43;;;;;;;0.90;0.90;;;;;;;;;;6286666;28;20230;-77
2022/01/17 17:43:47;;;;;;;6.90;1.23;;;;;;;;;;6286587;28;20444;-77
2022/01/17 17:46:57;;;;;;;6.43;1.40;;;;;;;;;;6312325;28;20277;-77
2022/01/17 17:50:01;;;;;;;2.20;1.00;;;;;;;;;;6311655;28;20238;-77
2022/01/17 17:53:05;;;;;;;4.33;0.97;;;;;;;;;;6312318;28;20184;-77
2022/01/17 17:56:16;;;;;;;2.00;1.03;;;;;;;;;;6311663;28;20243;-77
2022/01/17 17:59:22;;;;;;;1.80;0.90;;;;;;;;;;6310750;28;20409;-76
2022/01/17 18:02:27;;;;;;;3.80;1.20;;;;;;;;;;6311428;28;20471;-76
2022/01/17 18:05:32;;;;;;;5.47;0.90;;;;;;;;;;6311064;28;20228;-76
2022/01/17 18:08:36;;;;;;;1.03;1.03;;;;;;;;;;6312031;28;20186;-77
2022/01/17 18:11:43;;;;;;;0.90;0.90;;;;;;;;;;6311762;28;20231;-78
2022/01/17 18:14:47;;;;;;;2.67;1.10;;;;;;;;;;6311866;28;20231;-76
2022/01/17 18:17:52;;;;;;;6.63;1.40;;;;;;;;;;6312824;28;20188;-76
2022/01/17 18:21:00;;;;;;;2.93;1.07;;;;;;;;;;6311183;28;20517;-77
2022/01/17 18:24:06;;;;;;;5.10;1.17;;;;;;;;;;6310781;28;20186;-77
2022/01/17 18:27:15;;;;;;;0.90;0.90;;;;;;;;;;6312110;28;20252;-77
2022/01/17 18:30:19;;;;;;;1.00;1.00;;;;;;;;;;6311812;28;20244;-77
2022/01/17 18:33:23;;;;;;;1.07;1.07;;;;;;;;;;6293810;28;20209;-77
2022/01/17 18:36:27;;;;;;;13.77;1.40;;;;;;;;;;6311599;28;20298;-77
2022/01/17 18:39:31;;;;;;;1.07;1.03;;;;;;;;;;6311937;28;20226;-77
2022/01/17 18:42:37;;;;;;;1.20;1.20;;;;;;;;;;6311860;28;20184;-78
2022/01/17 18:45:41;;;;;;;2.00;0.97;;;;;;;;;;6316630;28;20230;-77
2022/01/17 18:48:46;;;;;;;1.10;1.10;;;;;;;;;;6317898;28;20197;-77
2022/01/17 18:51:53;;;;;;;1.40;1.40;;;;;;;;;;6317276;28;20230;-77
2022/01/17 18:54:57;;;;;;;0.97;0.97;;;;;;;;;;6317228;28;20308;-78